createdAt,value
2018-05-25T00:00:47.500Z,15.83
2018-05-25T00:03:15.732Z,15.47
2018-05-25T00:05:43.215Z,14.93
2018-05-25T00:08:10.675Z,15.07
2018-05-25T00:10:38.923Z,15.27
2018-05-25T00:13:06.395Z,15.20
2018-05-25T00:15:33.889Z,15.80
2018-05-25T00:18:01.468Z,15.57
2018-05-25T00:20:29.189Z,15.70
2018-05-25T00:22:57.498Z,15.53
2018-05-25T00:25:24.985Z,15.80
2018-05-25T00:27:52.455Z,15.87
2018-05-25T00:30:19.975Z,16.27
2018-05-25T00:32:47.543Z,16.50
2018-05-25T00:35:15.017Z,16.33
2018-05-25T00:37:42.504Z,16.17
2018-05-25T00:40:10.056Z,15.77
2018-05-25T00:42:37.544Z,15.97
2018-05-25T00:45:05.778Z,16.87
2018-05-25T00:47:33.273Z,16.17
2018-05-25T00:50:01.501Z,18.03
2018-05-25T00:52:28.986Z,16.60
2018-05-25T00:55:08.318Z,17.10
2018-05-25T00:57:35.801Z,17.13
2018-05-25T01:00:04.750Z,17.47
2018-05-25T01:02:32.223Z,16.67
2018-05-25T01:04:59.697Z,17.30
2018-05-25T01:07:28.004Z,18.60
2018-05-25T01:09:55.467Z,16.77
2018-05-25T01:12:23.021Z,18.13
2018-05-25T01:14:50.579Z,17.87
2018-05-25T01:17:18.059Z,18.57
2018-05-25T01:19:45.524Z,18.73
2018-05-25T01:22:13.004Z,18.73
2018-05-25T01:24:40.508Z,19.20
2018-05-25T01:27:08.068Z,18.70
2018-05-25T01:29:35.628Z,19.07
2018-05-25T01:32:03.143Z,18.17
2018-05-25T01:34:31.375Z,19.13
2018-05-25T01:36:59.452Z,17.93
2018-05-25T01:39:26.923Z,18.47
2018-05-25T01:41:54.407Z,18.67
2018-05-25T01:44:21.881Z,19.10
2018-05-25T01:46:50.136Z,18.93
2018-05-25T01:49:17.590Z,18.97
2018-05-25T01:51:45.093Z,18.73
2018-05-25T01:54:12.627Z,18.83
2018-05-25T01:56:41.026Z,19.60
2018-05-25T01:59:08.483Z,19.53
2018-05-25T02:01:35.999Z,19.63
2018-05-25T02:04:04.992Z,19.90
2018-05-25T02:06:32.476Z,19.43
2018-05-25T02:09:00.703Z,20.83
2018-05-25T02:11:28.651Z,21.90
2018-05-25T02:13:56.152Z,20.83
2018-05-25T02:16:23.641Z,21.00
2018-05-25T02:18:51.110Z,21.13
2018-05-25T02:21:18.596Z,20.23
2018-05-25T02:23:46.058Z,21.70
2018-05-25T02:26:13.540Z,21.33
2018-05-25T02:28:41.782Z,21.23
2018-05-25T02:31:09.274Z,22.23
2018-05-25T02:33:37.521Z,22.07
2018-05-25T02:36:05.044Z,22.70
2018-05-25T02:38:32.526Z,22.50
2018-05-25T02:41:00.004Z,21.17
2018-05-25T02:43:27.484Z,22.33
2018-05-25T02:45:55.722Z,20.27
2018-05-25T02:48:23.205Z,21.47
2018-05-25T02:50:50.664Z,22.63
2018-05-25T02:53:18.155Z,23.37
2018-05-25T02:55:45.685Z,23.00
2018-05-25T02:58:13.955Z,22.73
2018-05-25T03:00:41.437Z,22.30
2018-05-25T03:03:09.691Z,23.90
2018-05-25T03:05:37.154Z,22.80
2018-05-25T03:08:05.420Z,23.60
2018-05-25T03:10:32.890Z,23.17
2018-05-25T03:13:01.147Z,22.57
2018-05-25T03:15:28.820Z,22.07
2018-05-25T03:17:56.383Z,22.20
2018-05-25T03:20:24.623Z,23.17
2018-05-25T03:22:52.219Z,22.67
2018-05-25T03:25:20.452Z,22.63
2018-05-25T03:27:47.936Z,22.47
2018-05-25T03:30:16.173Z,22.90
2018-05-25T03:32:43.659Z,23.83
2018-05-25T03:35:11.120Z,23.33
2018-05-25T03:37:40.118Z,24.27
2018-05-25T03:40:07.588Z,23.23
2018-05-25T03:42:35.148Z,24.00
2018-05-25T03:45:02.615Z,23.23
2018-05-25T03:47:30.887Z,23.53
2018-05-25T03:49:59.195Z,23.73
2018-05-25T03:52:26.678Z,24.23
2018-05-25T03:54:54.148Z,24.47
2018-05-25T03:57:21.730Z,24.70
2018-05-25T04:00:01.956Z,23.90
2018-05-25T04:02:29.484Z,24.70
2018-05-25T04:04:57.045Z,25.53
2018-05-25T04:07:24.528Z,26.10
2018-05-25T04:09:54.383Z,23.53
2018-05-25T04:12:23.955Z,25.30
2018-05-25T04:14:51.441Z,25.17
2018-05-25T04:17:19.695Z,26.17
2018-05-25T04:19:47.201Z,25.13
2018-05-25T04:22:14.705Z,23.93
2018-05-25T04:24:42.176Z,23.77
2018-05-25T04:27:09.663Z,23.50
2018-05-25T04:29:37.261Z,23.27
2018-05-25T04:32:04.744Z,22.90
2018-05-25T04:34:32.234Z,24.17
2018-05-25T04:37:01.295Z,24.33
2018-05-25T04:39:28.752Z,22.83
2018-05-25T04:41:56.242Z,22.43
2018-05-25T04:44:24.480Z,22.10
2018-05-25T04:46:52.003Z,23.00
2018-05-25T04:49:19.565Z,22.70
2018-05-25T04:51:47.118Z,23.07
2018-05-25T04:54:14.640Z,24.53
2018-05-25T04:56:42.894Z,24.40
2018-05-25T04:59:10.512Z,24.03
2018-05-25T05:01:38.072Z,24.70
2018-05-25T05:04:05.621Z,24.50
2018-05-25T05:06:33.093Z,25.23
2018-05-25T05:09:00.572Z,25.60
2018-05-25T05:11:28.284Z,26.43
2018-05-25T05:13:57.275Z,26.70
2018-05-25T05:16:24.859Z,28.37
2018-05-25T05:18:53.961Z,26.40
2018-05-25T05:21:21.423Z,25.67
2018-05-25T05:23:49.694Z,26.80
2018-05-25T05:26:17.168Z,27.77
2018-05-25T05:28:45.540Z,28.43
2018-05-25T05:31:13.790Z,27.17
2018-05-25T05:33:41.319Z,27.63
2018-05-25T05:36:08.777Z,29.10
2018-05-25T05:38:36.265Z,27.27
2018-05-25T05:41:03.736Z,28.00
2018-05-25T05:43:31.262Z,28.73
2018-05-25T05:45:58.743Z,27.73
2018-05-25T05:48:26.245Z,27.57
2018-05-25T05:50:53.747Z,28.53
2018-05-25T05:53:21.212Z,26.40
2018-05-25T05:55:48.807Z,28.83
2018-05-25T05:58:16.798Z,29.93
2018-05-25T06:00:44.663Z,27.17
2018-05-25T06:03:12.139Z,27.90
2018-05-25T06:05:39.620Z,28.17
2018-05-25T06:08:07.107Z,29.57
2018-05-25T06:10:35.377Z,26.83
2018-05-25T06:13:03.672Z,27.50
2018-05-25T06:15:31.157Z,24.97
2018-05-25T06:17:58.635Z,26.10
2018-05-25T06:20:26.654Z,23.70
2018-05-25T06:22:55.048Z,25.03
2018-05-25T06:25:22.568Z,25.23
2018-05-25T06:27:50.021Z,24.53
2018-05-25T06:30:23.476Z,25.93
2018-05-25T06:32:50.952Z,24.83
2018-05-25T06:35:18.513Z,24.97
2018-05-25T06:37:45.996Z,24.90
2018-05-25T06:40:14.251Z,25.47
2018-05-25T06:42:41.875Z,24.73
2018-05-25T06:45:09.358Z,25.70
2018-05-25T06:47:36.826Z,25.23
2018-05-25T06:50:04.342Z,24.73
2018-05-25T06:52:31.821Z,26.00
2018-05-25T06:54:59.336Z,25.67
2018-05-25T06:57:27.569Z,26.07
2018-05-25T06:59:55.092Z,25.00
2018-05-25T07:02:22.563Z,26.17
2018-05-25T07:04:50.056Z,25.13
2018-05-25T07:07:19.102Z,26.10
2018-05-25T07:09:46.612Z,26.87
2018-05-25T07:12:14.117Z,25.50
2018-05-25T07:14:41.677Z,27.67
2018-05-25T07:17:09.188Z,26.97
2018-05-25T07:19:36.747Z,27.43
2018-05-25T07:22:04.323Z,29.73
2018-05-25T07:24:32.574Z,28.03
2018-05-25T07:27:00.057Z,28.07
2018-05-25T07:29:28.365Z,28.43
2018-05-25T07:31:55.838Z,29.60
2018-05-25T07:34:23.327Z,28.70
2018-05-25T07:36:50.811Z,28.80
2018-05-25T07:39:19.124Z,28.63
2018-05-25T07:41:47.340Z,28.80
2018-05-25T07:44:14.826Z,28.23
2018-05-25T07:46:43.064Z,28.23
2018-05-25T07:49:10.558Z,27.40
2018-05-25T07:51:38.854Z,26.77
2018-05-25T07:54:06.347Z,27.73
2018-05-25T07:56:33.816Z,26.20
2018-05-25T07:59:02.833Z,27.90
2018-05-25T08:01:31.104Z,29.57
2018-05-25T08:03:59.356Z,29.53
2018-05-25T08:06:28.392Z,29.00
2018-05-25T08:08:55.839Z,28.87
2018-05-25T08:11:24.094Z,29.20
2018-05-25T08:13:52.346Z,30.20
2018-05-25T08:16:19.837Z,27.70
2018-05-25T08:18:47.308Z,27.90
2018-05-25T08:21:15.584Z,29.67
2018-05-25T08:23:44.019Z,29.70
2018-05-25T08:26:11.520Z,29.13
2018-05-25T08:28:39.773Z,28.67
2018-05-25T08:31:07.263Z,26.97
2018-05-25T08:33:34.728Z,29.77
2018-05-25T08:36:02.225Z,29.60
2018-05-25T08:38:29.693Z,30.73
2018-05-25T08:40:58.041Z,29.07
2018-05-25T08:43:25.548Z,29.03
2018-05-25T08:45:53.814Z,29.70
2018-05-25T08:48:21.540Z,29.10
2018-05-25T08:50:49.694Z,29.60
2018-05-25T08:53:17.174Z,27.67
2018-05-25T08:55:44.679Z,29.73
2018-05-25T08:58:12.916Z,28.87
2018-05-25T09:00:40.416Z,29.13
2018-05-25T09:03:09.388Z,26.03
2018-05-25T09:05:36.876Z,25.50
2018-05-25T09:08:04.391Z,27.37
2018-05-25T09:10:31.920Z,26.93
2018-05-25T09:12:59.400Z,26.30
2018-05-25T09:15:26.884Z,26.53
2018-05-25T09:17:54.357Z,27.20
2018-05-25T09:20:22.604Z,25.80
2018-05-25T09:22:50.073Z,27.17
2018-05-25T09:25:17.559Z,27.17
2018-05-25T09:27:45.039Z,25.37
2018-05-25T09:30:13.377Z,25.23
2018-05-25T09:32:41.617Z,26.03
2018-05-25T09:35:09.102Z,25.60
2018-05-25T09:37:37.343Z,26.20
2018-05-25T09:40:05.256Z,25.47
2018-05-25T09:42:33.504Z,24.67
2018-05-25T09:45:01.005Z,25.67
2018-05-25T09:47:28.538Z,24.00
2018-05-25T09:49:56.827Z,24.83
2018-05-25T09:52:26.012Z,23.90
2018-05-25T09:54:53.498Z,24.17
2018-05-25T09:57:20.968Z,25.07
2018-05-25T09:59:48.471Z,24.00
2018-05-25T10:02:15.957Z,24.30
2018-05-25T10:04:44.320Z,25.43
2018-05-25T10:07:11.792Z,25.40
2018-05-25T10:09:40.048Z,23.23
2018-05-25T10:12:07.512Z,23.17
2018-05-25T10:14:35.005Z,23.07
2018-05-25T10:17:02.520Z,23.60
2018-05-25T10:19:30.754Z,31.73
2018-05-25T10:21:58.251Z,24.13
2018-05-25T10:24:25.740Z,24.60
2018-05-25T10:26:53.311Z,23.83
2018-05-25T10:29:20.792Z,24.80
2018-05-25T10:31:48.287Z,26.57
2018-05-25T10:34:15.748Z,25.90
2018-05-25T10:36:44.007Z,25.90
2018-05-25T10:39:11.475Z,25.93
2018-05-25T10:41:38.963Z,27.33
2018-05-25T10:44:06.435Z,28.50
2018-05-25T10:46:34.100Z,28.77
2018-05-25T10:49:02.433Z,26.37
2018-05-25T10:51:29.935Z,26.47
2018-05-25T10:53:57.415Z,25.07
2018-05-25T10:56:24.962Z,27.00
2018-05-25T10:58:52.439Z,26.73
2018-05-25T11:01:19.933Z,25.30
2018-05-25T11:03:48.229Z,23.97
2018-05-25T11:06:15.694Z,24.53
2018-05-25T11:08:43.253Z,23.67
2018-05-25T11:11:10.813Z,23.00
2018-05-25T11:13:38.294Z,22.53
2018-05-25T11:16:05.798Z,20.30
2018-05-25T11:18:34.171Z,21.07
2018-05-25T11:21:02.508Z,18.60
2018-05-25T11:23:30.711Z,21.20
2018-05-25T11:25:58.280Z,21.50
2018-05-25T11:28:26.521Z,21.60
2018-05-25T11:30:54.007Z,20.60
2018-05-25T11:33:21.571Z,21.33
2018-05-25T11:35:49.845Z,18.73
2018-05-25T11:38:18.103Z,19.93
2018-05-25T11:40:47.120Z,21.47
2018-05-25T11:43:15.415Z,20.87
2018-05-25T11:45:43.219Z,18.33
2018-05-25T11:48:10.699Z,17.00
2018-05-25T11:50:38.212Z,16.30
2018-05-25T11:53:05.762Z,17.93
2018-05-25T11:55:34.002Z,18.17
2018-05-25T11:58:01.476Z,17.30
2018-05-25T12:00:29.758Z,17.23
2018-05-25T12:02:58.023Z,16.07
2018-05-25T12:05:26.287Z,15.83
2018-05-25T12:07:53.768Z,15.73
2018-05-25T12:10:21.283Z,15.07
2018-05-25T12:12:48.780Z,10.07
2018-05-25T12:15:17.029Z,9.40
2018-05-25T12:17:46.007Z,10.53
2018-05-25T12:20:13.469Z,9.60
2018-05-25T12:22:40.946Z,9.47
2018-05-25T12:25:09.224Z,9.10
2018-05-25T12:27:36.777Z,8.83
2018-05-25T12:30:04.274Z,7.87
2018-05-25T12:32:31.748Z,6.90
2018-05-25T12:37:33.301Z,7.40
2018-05-25T12:40:00.759Z,9.17
2018-05-25T12:42:28.267Z,9.30
2018-05-25T12:45:07.756Z,7.97
2018-05-25T12:47:35.276Z,7.33
2018-05-25T12:50:02.834Z,6.10
2018-05-25T12:52:31.084Z,6.33
2018-05-25T12:54:58.549Z,8.03
2018-05-25T12:57:26.025Z,7.50
2018-05-25T12:59:53.485Z,7.57
2018-05-25T13:02:21.728Z,6.17
2018-05-25T13:04:49.208Z,6.07
2018-05-25T13:07:16.710Z,6.33
2018-05-25T13:09:44.221Z,6.90
2018-05-25T13:12:11.725Z,8.77
2018-05-25T13:14:39.264Z,8.43
2018-05-25T13:17:06.844Z,7.83
2018-05-25T13:19:34.328Z,8.33
2018-05-25T13:22:01.815Z,6.43
2018-05-25T13:24:29.282Z,6.90
2018-05-25T13:26:58.481Z,6.67
2018-05-25T13:29:26.737Z,6.80
2018-05-25T13:31:54.990Z,6.73
2018-05-25T13:34:22.733Z,6.70
2018-05-25T13:36:50.216Z,6.77
2018-05-25T13:39:17.684Z,6.87
2018-05-25T13:41:45.160Z,5.90
2018-05-25T13:44:12.657Z,6.03
2018-05-25T13:46:40.136Z,6.17
2018-05-25T13:49:07.628Z,5.80
2018-05-25T13:51:35.439Z,6.27
2018-05-25T13:54:03.916Z,6.37
2018-05-25T13:56:31.415Z,6.13
2018-05-25T13:58:58.892Z,5.83
2018-05-25T14:01:26.435Z,6.00
2018-05-25T14:03:53.899Z,6.40
2018-05-25T14:06:21.384Z,6.13
2018-05-25T14:08:49.603Z,6.30
2018-05-25T14:11:17.082Z,6.27
2018-05-25T14:13:44.546Z,6.00
2018-05-25T14:16:12.056Z,6.27
2018-05-25T14:18:39.520Z,5.90
2018-05-25T14:21:07.020Z,6.23
2018-05-25T14:23:36.127Z,6.07
2018-05-25T14:28:37.669Z,5.53
2018-05-25T14:31:05.189Z,5.60
2018-05-25T14:33:33.164Z,5.93
2018-05-25T14:36:00.637Z,5.67
2018-05-25T14:38:28.124Z,5.33
2018-05-25T14:40:55.583Z,5.80
2018-05-25T14:43:23.488Z,5.27
2018-05-25T14:45:51.963Z,5.60
2018-05-25T14:48:20.220Z,6.00
2018-05-25T14:50:48.448Z,5.70
2018-05-25T14:53:15.956Z,6.03
2018-05-25T14:55:44.188Z,5.30
2018-05-25T14:58:11.688Z,5.77
2018-05-25T15:00:39.920Z,5.55
2018-05-25T15:03:07.416Z,5.87
2018-05-25T15:05:35.650Z,5.68
2018-05-25T15:08:03.188Z,5.75
2018-05-25T15:10:30.659Z,5.90
2018-05-25T15:12:58.147Z,5.05
2018-05-25T15:15:25.600Z,4.57
2018-05-25T15:17:53.116Z,4.75
2018-05-25T15:20:20.568Z,4.18
2018-05-25T15:22:48.298Z,4.37
2018-05-25T15:25:15.798Z,4.37
2018-05-25T15:27:44.039Z,4.55
2018-05-25T15:30:12.272Z,4.37
2018-05-25T15:32:40.735Z,4.50
2018-05-25T15:35:08.284Z,4.07
2018-05-25T15:37:35.764Z,4.55
2018-05-25T15:40:03.225Z,4.40
2018-05-25T15:42:30.698Z,4.70
2018-05-25T15:44:58.171Z,3.72
2018-05-25T15:47:25.688Z,4.28
2018-05-25T15:49:53.151Z,4.22
2018-05-25T15:52:20.631Z,4.20
2018-05-25T15:54:48.115Z,4.28
2018-05-25T15:57:16.361Z,4.10
2018-05-25T15:59:43.824Z,4.80
2018-05-25T16:02:11.362Z,4.37
2018-05-25T16:04:38.812Z,4.30
2018-05-25T16:07:06.304Z,4.45
2018-05-25T16:09:33.776Z,3.70
2018-05-25T16:12:02.026Z,4.55
2018-05-25T16:14:31.004Z,3.80
2018-05-25T16:16:58.487Z,4.20
2018-05-25T16:19:25.988Z,4.30
2018-05-25T16:21:53.472Z,5.15
2018-05-25T16:24:20.936Z,4.65
2018-05-25T16:26:48.416Z,5.53
2018-05-25T16:29:15.885Z,5.07
2018-05-25T16:31:44.141Z,4.53
2018-05-25T16:34:11.650Z,4.40
2018-05-25T16:36:39.876Z,4.40
2018-05-25T16:39:07.440Z,4.85
2018-05-25T16:41:34.910Z,5.32
2018-05-25T16:44:03.161Z,5.12
2018-05-25T16:46:31.419Z,5.20
2018-05-25T16:48:58.907Z,5.20
2018-05-25T16:51:26.371Z,4.97
2018-05-25T16:53:54.640Z,5.25
2018-05-25T16:56:22.094Z,5.05
2018-05-25T16:58:49.596Z,5.47
2018-05-25T17:01:17.065Z,5.03
2018-05-25T17:03:44.561Z,4.53
2018-05-25T17:06:12.627Z,5.33
2018-05-25T17:08:40.111Z,4.87
2018-05-25T17:11:08.343Z,5.47
2018-05-25T17:13:35.835Z,5.97
2018-05-25T17:16:03.567Z,5.80
2018-05-25T17:18:31.044Z,5.23
2018-05-25T17:20:58.552Z,5.47
2018-05-25T17:23:26.768Z,5.50
2018-05-25T17:25:54.236Z,6.27
2018-05-25T17:28:23.248Z,5.60
2018-05-25T17:30:51.491Z,5.40
2018-05-25T17:33:19.078Z,5.37
2018-05-25T17:35:47.308Z,5.43
2018-05-25T17:38:15.175Z,5.10
2018-05-25T17:40:42.668Z,5.80
2018-05-25T17:43:11.663Z,4.83
2018-05-25T17:45:39.159Z,5.10
2018-05-25T17:48:06.646Z,5.90
2018-05-25T17:50:34.121Z,5.33
2018-05-25T17:53:01.719Z,5.30
2018-05-25T17:55:29.967Z,4.93
2018-05-25T17:57:57.445Z,5.63
2018-05-25T18:00:25.680Z,5.20
2018-05-25T18:02:53.169Z,4.80
2018-05-25T18:05:21.403Z,5.03
2018-05-25T18:07:48.908Z,5.03
2018-05-25T18:10:16.404Z,4.87
2018-05-25T18:12:43.892Z,5.00
2018-05-25T18:15:11.382Z,4.77
2018-05-25T18:17:39.624Z,4.50
2018-05-25T18:20:07.108Z,4.67
2018-05-25T18:22:35.348Z,5.00
2018-05-25T18:25:02.837Z,4.70
2018-05-25T18:27:31.116Z,4.70
2018-05-25T18:29:59.362Z,5.00
2018-05-25T18:32:26.836Z,4.50
2018-05-25T18:34:55.081Z,4.70
2018-05-25T18:37:22.549Z,4.87
2018-05-25T18:39:50.173Z,4.97
2018-05-25T18:42:17.642Z,4.43
2018-05-25T18:44:45.125Z,4.70
2018-05-25T18:47:12.592Z,4.60
2018-05-25T18:49:40.076Z,4.80
2018-05-25T18:52:08.338Z,5.00
2018-05-25T18:54:35.860Z,5.10
2018-05-25T18:57:03.337Z,4.80
2018-05-25T18:59:30.834Z,4.87
2018-05-25T19:01:59.077Z,5.20
2018-05-25T19:04:26.567Z,4.97
2018-05-25T19:06:54.818Z,5.37
2018-05-25T19:09:22.279Z,5.23
2018-05-25T19:11:49.753Z,5.60
2018-05-25T19:14:17.993Z,5.10
2018-05-25T19:16:45.491Z,5.60
2018-05-25T19:19:13.408Z,5.67
2018-05-25T19:21:40.908Z,5.10
2018-05-25T19:24:09.148Z,4.70
2018-05-25T19:26:36.642Z,5.10
2018-05-25T19:29:04.883Z,5.27
2018-05-25T19:31:32.367Z,5.20
2018-05-25T19:34:00.598Z,5.63
2018-05-25T19:36:28.091Z,4.83
2018-05-25T19:38:55.552Z,5.57
2018-05-25T19:41:23.083Z,5.87
2018-05-25T19:43:50.555Z,5.20
2018-05-25T19:46:19.529Z,5.30
2018-05-25T19:48:47.007Z,5.50
2018-05-25T19:51:14.585Z,5.73
2018-05-25T19:53:42.844Z,5.27
2018-05-25T19:56:10.315Z,5.60
2018-05-25T19:58:38.559Z,5.53
2018-05-25T20:01:06.183Z,7.43
2018-05-25T20:03:33.675Z,6.30
2018-05-25T20:06:01.154Z,6.33
2018-05-25T20:08:28.666Z,5.63
2018-05-25T20:10:56.134Z,5.60
2018-05-25T20:13:23.624Z,5.57
2018-05-25T20:15:51.093Z,5.60
2018-05-25T20:18:18.754Z,5.80
2018-05-25T20:20:46.999Z,6.17
2018-05-25T20:23:14.548Z,6.20
2018-05-25T20:25:41.974Z,6.37
2018-05-25T20:28:09.432Z,5.90
2018-05-25T20:30:36.920Z,6.10
2018-05-25T20:33:04.389Z,6.40
2018-05-25T20:35:31.875Z,6.60
2018-05-25T20:38:00.119Z,6.67
2018-05-25T20:40:27.620Z,6.23
2018-05-25T20:42:55.857Z,6.50
2018-05-25T20:45:23.365Z,6.50
2018-05-25T20:47:50.894Z,6.90
2018-05-25T20:50:18.403Z,7.07
2018-05-25T20:52:45.865Z,6.80
2018-05-25T20:55:14.135Z,7.00
2018-05-25T20:57:41.609Z,5.90
2018-05-25T21:00:09.090Z,6.50
2018-05-25T21:05:10.556Z,5.93
2018-05-25T21:07:38.024Z,5.87
2018-05-25T21:10:05.961Z,6.67
2018-05-25T21:12:33.428Z,6.40
2018-05-25T21:15:00.938Z,6.47
2018-05-25T21:17:28.404Z,6.60
2018-05-25T21:19:55.897Z,6.33
2018-05-25T21:22:23.369Z,6.87
2018-05-25T21:24:50.847Z,7.10
2018-05-25T21:27:19.077Z,6.60
2018-05-25T21:29:46.574Z,6.83
2018-05-25T21:32:14.803Z,6.63
2018-05-25T21:34:42.283Z,6.57
2018-05-25T21:37:09.789Z,6.73
2018-05-25T21:39:38.018Z,6.30
2018-05-25T21:42:05.476Z,6.73
2018-05-25T21:44:32.956Z,6.47
2018-05-25T21:47:01.201Z,6.83
2018-05-25T21:49:28.667Z,6.93
2018-05-25T21:51:56.147Z,6.43
2018-05-25T21:54:24.393Z,6.53
2018-05-25T21:56:52.647Z,6.63
2018-05-25T21:59:20.139Z,6.57
2018-05-25T22:01:47.640Z,6.47
2018-05-25T22:06:48.935Z,5.90
2018-05-25T22:09:16.397Z,6.53
2018-05-25T22:11:43.883Z,6.83
2018-05-25T22:14:12.171Z,6.33
2018-05-25T22:16:40.429Z,6.60
2018-05-25T22:19:07.887Z,6.60
2018-05-25T22:21:35.376Z,6.37
2018-05-25T22:24:02.851Z,6.63
2018-05-25T22:26:30.369Z,6.77
2018-05-25T22:28:58.607Z,6.73
2018-05-25T22:31:26.091Z,6.90
2018-05-25T22:33:53.580Z,7.30
2018-05-25T22:36:21.071Z,6.30
2018-05-25T22:38:48.580Z,6.30
2018-05-25T22:41:16.835Z,6.20
2018-05-25T22:43:56.221Z,6.17
2018-05-25T22:46:35.502Z,6.13
2018-05-25T22:49:16.231Z,6.30
2018-05-25T22:51:55.612Z,5.90
2018-05-25T22:54:34.178Z,6.80
2018-05-25T22:57:01.670Z,6.53
2018-05-25T22:59:29.133Z,6.97
2018-05-25T23:01:56.611Z,6.63
2018-05-25T23:04:24.847Z,6.50
2018-05-25T23:06:53.099Z,6.60
2018-05-25T23:09:20.562Z,7.00
2018-05-25T23:11:48.045Z,6.77
2018-05-25T23:14:15.515Z,6.60
2018-05-25T23:16:42.993Z,6.63
2018-05-25T23:19:11.224Z,6.50
2018-05-25T23:21:38.715Z,6.93
2018-05-25T23:24:06.196Z,6.00
2018-05-25T23:26:34.415Z,6.73
2018-05-25T23:29:01.903Z,6.10
2018-05-25T23:31:29.369Z,5.77
2018-05-25T23:33:57.646Z,6.33
2018-05-25T23:36:25.887Z,6.03
2018-05-25T23:38:53.367Z,6.27
2018-05-25T23:41:20.830Z,5.87
2018-05-25T23:43:49.092Z,6.27
2018-05-25T23:46:16.544Z,6.00
2018-05-25T23:48:44.026Z,6.47
2018-05-25T23:51:12.409Z,6.63
2018-05-25T23:53:40.652Z,6.27
2018-05-25T23:56:08.174Z,7.03
2018-05-25T23:58:35.664Z,6.57
